sensor_id;sensor_type;location;lat;lon;timestamp;temperature;humidity
20973;DHT22;10645;52.370;13.314;2023-08-08T00:01:40;13.40;99.90
20973;DHT22;10645;52.370;13.314;2023-08-08T00:04:09;13.40;99.90
20973;DHT22;10645;52.370;13.314;2023-08-08T00:06:36;13.40;99.90
20973;DHT22;10645;52.370;13.314;2023-08-08T00:09:03;13.30;99.90
20973;DHT22;10645;52.370;13.314;2023-08-08T00:11:30;13.30;99.90
20973;DHT22;10645;52.370;13.314;2023-08-08T00:13:56;13.30;99.90
20973;DHT22;10645;52.370;13.314;2023-08-08T00:16:23;13.20;99.90
20973;DHT22;10645;52.370;13.314;2023-08-08T00:18:49;13.10;99.90
20973;DHT22;10645;52.370;13.314;2023-08-08T00:21:16;13.10;99.90
20973;DHT22;10645;52.370;13.314;2023-08-08T00:23:43;13.10;99.90
20973;DHT22;10645;52.370;13.314;2023-08-08T00:26:09;13.00;99.90
20973;DHT22;10645;52.370;13.314;2023-08-08T00:28:35;13.00;99.90
20973;DHT22;10645;52.370;13.314;2023-08-08T00:31:01;13.00;99.90
20973;DHT22;10645;52.370;13.314;2023-08-08T00:33:27;13.00;99.90
20973;DHT22;10645;52.370;13.314;2023-08-08T00:35:53;13.00;99.90
20973;DHT22;10645;52.370;13.314;2023-08-08T00:38:19;12.90;99.90
20973;DHT22;10645;52.370;13.314;2023-08-08T00:40:45;12.90;99.90
20973;DHT22;10645;52.370;13.314;2023-08-08T00:43:11;12.90;99.90
20973;DHT22;10645;52.370;13.314;2023-08-08T00:45:40;12.90;99.90
20973;DHT22;10645;52.370;13.314;2023-08-08T00:48:07;12.90;99.90
20973;DHT22;10645;52.370;13.314;2023-08-08T00:50:34;12.80;99.90
20973;DHT22;10645;52.370;13.314;2023-08-08T00:53:04;12.70;99.90
20973;DHT22;10645;52.370;13.314;2023-08-08T00:55:30;12.60;99.90
20973;DHT22;10645;52.370;13.314;2023-08-08T00:57:57;12.70;99.90
20973;DHT22;10645;52.370;13.314;2023-08-08T01:00:23;12.60;99.90
20973;DHT22;10645;52.370;13.314;2023-08-08T01:02:49;12.60;99.90
20973;DHT22;10645;52.370;13.314;2023-08-08T01:05:15;12.60;99.90
20973;DHT22;10645;52.370;13.314;2023-08-08T01:08:04;12.60;99.90
20973;DHT22;10645;52.370;13.314;2023-08-08T01:10:37;12.60;99.90
20973;DHT22;10645;52.370;13.314;2023-08-08T01:13:12;12.50;99.90
20973;DHT22;10645;52.370;13.314;2023-08-08T01:15:40;12.50;99.90
20973;DHT22;10645;52.370;13.314;2023-08-08T01:18:08;12.50;99.90
20973;DHT22;10645;52.370;13.314;2023-08-08T01:20:35;12.50;99.90
20973;DHT22;10645;52.370;13.314;2023-08-08T01:23:16;12.50;99.90
20973;DHT22;10645;52.370;13.314;2023-08-08T01:25:43;12.50;99.90
20973;DHT22;10645;52.370;13.314;2023-08-08T01:28:10;12.50;99.90
20973;DHT22;10645;52.370;13.314;2023-08-08T01:30:36;12.40;99.90
20973;DHT22;10645;52.370;13.314;2023-08-08T01:33:03;12.40;99.90
20973;DHT22;10645;52.370;13.314;2023-08-08T01:35:31;12.40;99.90
20973;DHT22;10645;52.370;13.314;2023-08-08T01:38:08;12.40;99.90
20973;DHT22;10645;52.370;13.314;2023-08-08T01:40:38;12.30;99.90
20973;DHT22;10645;52.370;13.314;2023-08-08T01:43:05;12.30;99.90
20973;DHT22;10645;52.370;13.314;2023-08-08T01:45:31;12.20;99.90
20973;DHT22;10645;52.370;13.314;2023-08-08T01:47:57;12.10;99.90
20973;DHT22;10645;52.370;13.314;2023-08-08T01:50:23;12.20;99.90
20973;DHT22;10645;52.370;13.314;2023-08-08T01:52:51;12.20;99.90
20973;DHT22;10645;52.370;13.314;2023-08-08T01:55:19;12.20;99.90
20973;DHT22;10645;52.370;13.314;2023-08-08T01:57:45;12.20;99.90
20973;DHT22;10645;52.370;13.314;2023-08-08T02:00:11;12.20;99.90
20973;DHT22;10645;52.370;13.314;2023-08-08T02:02:44;12.20;99.90
20973;DHT22;10645;52.370;13.314;2023-08-08T02:05:11;12.20;99.90
20973;DHT22;10645;52.370;13.314;2023-08-08T02:07:37;12.20;99.90
20973;DHT22;10645;52.370;13.314;2023-08-08T02:10:03;12.10;99.90
20973;DHT22;10645;52.370;13.314;2023-08-08T02:12:29;12.10;99.90
20973;DHT22;10645;52.370;13.314;2023-08-08T02:14:56;12.10;99.90
20973;DHT22;10645;52.370;13.314;2023-08-08T02:17:23;12.10;99.90
20973;DHT22;10645;52.370;13.314;2023-08-08T02:19:49;12.10;99.90
20973;DHT22;10645;52.370;13.314;2023-08-08T02:22:15;12.10;99.90
20973;DHT22;10645;52.370;13.314;2023-08-08T02:24:41;12.10;99.90
20973;DHT22;10645;52.370;13.314;2023-08-08T02:27:08;12.00;99.90
20973;DHT22;10645;52.370;13.314;2023-08-08T02:29:34;12.00;99.90
20973;DHT22;10645;52.370;13.314;2023-08-08T02:32:00;12.00;99.90
20973;DHT22;10645;52.370;13.314;2023-08-08T02:34:26;12.10;99.90
20973;DHT22;10645;52.370;13.314;2023-08-08T02:36:52;12.10;99.90
20973;DHT22;10645;52.370;13.314;2023-08-08T02:39:18;12.10;99.90
20973;DHT22;10645;52.370;13.314;2023-08-08T02:41:44;12.20;99.90
20973;DHT22;10645;52.370;13.314;2023-08-08T02:44:11;12.20;99.90
20973;DHT22;10645;52.370;13.314;2023-08-08T02:46:37;12.20;99.90
20973;DHT22;10645;52.370;13.314;2023-08-08T02:49:05;12.20;99.90
20973;DHT22;10645;52.370;13.314;2023-08-08T02:51:31;12.20;99.90
20973;DHT22;10645;52.370;13.314;2023-08-08T02:53:57;12.10;99.90
20973;DHT22;10645;52.370;13.314;2023-08-08T02:56:23;12.00;99.90
20973;DHT22;10645;52.370;13.314;2023-08-08T02:58:51;12.10;99.90
20973;DHT22;10645;52.370;13.314;2023-08-08T03:01:17;12.00;99.90
20973;DHT22;10645;52.370;13.314;2023-08-08T03:03:46;12.20;99.90
20973;DHT22;10645;52.370;13.314;2023-08-08T03:06:13;12.10;99.90
20973;DHT22;10645;52.370;13.314;2023-08-08T03:08:39;12.00;99.90
20973;DHT22;10645;52.370;13.314;2023-08-08T03:11:06;12.00;99.90
20973;DHT22;10645;52.370;13.314;2023-08-08T03:13:33;12.00;99.90
20973;DHT22;10645;52.370;13.314;2023-08-08T03:15:59;12.00;99.90
20973;DHT22;10645;52.370;13.314;2023-08-08T03:18:25;12.00;99.90
20973;DHT22;10645;52.370;13.314;2023-08-08T03:20:52;11.90;99.90
20973;DHT22;10645;52.370;13.314;2023-08-08T03:23:19;11.90;99.90
20973;DHT22;10645;52.370;13.314;2023-08-08T03:25:45;11.90;99.90
20973;DHT22;10645;52.370;13.314;2023-08-08T03:28:13;11.80;99.90
20973;DHT22;10645;52.370;13.314;2023-08-08T03:30:39;11.80;99.90
20973;DHT22;10645;52.370;13.314;2023-08-08T03:33:08;11.90;99.90
20973;DHT22;10645;52.370;13.314;2023-08-08T03:35:34;11.80;99.90
20973;DHT22;10645;52.370;13.314;2023-08-08T03:38:01;11.80;99.90
20973;DHT22;10645;52.370;13.314;2023-08-08T03:40:28;11.90;99.90
20973;DHT22;10645;52.370;13.314;2023-08-08T03:42:54;11.90;99.90
20973;DHT22;10645;52.370;13.314;2023-08-08T03:45:20;11.90;99.90
20973;DHT22;10645;52.370;13.314;2023-08-08T03:47:46;11.90;99.90
20973;DHT22;10645;52.370;13.314;2023-08-08T03:50:12;12.00;99.90
20973;DHT22;10645;52.370;13.314;2023-08-08T03:52:39;12.00;99.90
20973;DHT22;10645;52.370;13.314;2023-08-08T03:55:09;12.00;99.90
20973;DHT22;10645;52.370;13.314;2023-08-08T03:57:37;12.00;99.90
20973;DHT22;10645;52.370;13.314;2023-08-08T04:00:04;12.10;99.90
20973;DHT22;10645;52.370;13.314;2023-08-08T04:02:39;12.20;99.90
20973;DHT22;10645;52.370;13.314;2023-08-08T04:05:05;12.20;99.90
20973;DHT22;10645;52.370;13.314;2023-08-08T04:07:31;12.30;99.90
20973;DHT22;10645;52.370;13.314;2023-08-08T04:09:58;12.40;99.90
20973;DHT22;10645;52.370;13.314;2023-08-08T04:12:24;12.50;99.90
20973;DHT22;10645;52.370;13.314;2023-08-08T04:14:50;12.50;99.90
20973;DHT22;10645;52.370;13.314;2023-08-08T04:17:16;12.60;99.90
20973;DHT22;10645;52.370;13.314;2023-08-08T04:19:42;12.60;99.90
20973;DHT22;10645;52.370;13.314;2023-08-08T04:22:09;12.60;99.90
20973;DHT22;10645;52.370;13.314;2023-08-08T04:24:35;12.60;99.90
20973;DHT22;10645;52.370;13.314;2023-08-08T04:27:01;12.70;99.90
20973;DHT22;10645;52.370;13.314;2023-08-08T04:29:27;12.70;99.90
20973;DHT22;10645;52.370;13.314;2023-08-08T04:31:53;12.80;99.90
20973;DHT22;10645;52.370;13.314;2023-08-08T04:34:19;12.80;99.90
20973;DHT22;10645;52.370;13.314;2023-08-08T04:36:45;12.70;99.90
20973;DHT22;10645;52.370;13.314;2023-08-08T04:39:11;12.70;99.90
20973;DHT22;10645;52.370;13.314;2023-08-08T04:41:37;12.70;99.90
20973;DHT22;10645;52.370;13.314;2023-08-08T04:44:03;12.70;99.90
20973;DHT22;10645;52.370;13.314;2023-08-08T04:46:29;12.70;99.90
20973;DHT22;10645;52.370;13.314;2023-08-08T04:48:55;12.80;99.90
20973;DHT22;10645;52.370;13.314;2023-08-08T04:51:21;12.70;99.90
20973;DHT22;10645;52.370;13.314;2023-08-08T04:53:47;12.80;99.90
20973;DHT22;10645;52.370;13.314;2023-08-08T04:56:13;12.80;99.90
20973;DHT22;10645;52.370;13.314;2023-08-08T04:58:40;12.90;99.90
20973;DHT22;10645;52.370;13.314;2023-08-08T05:01:06;12.90;99.90
20973;DHT22;10645;52.370;13.314;2023-08-08T05:03:34;13.00;99.90
20973;DHT22;10645;52.370;13.314;2023-08-08T05:06:00;13.00;99.90
20973;DHT22;10645;52.370;13.314;2023-08-08T05:08:27;13.00;99.90
20973;DHT22;10645;52.370;13.314;2023-08-08T05:10:53;13.10;99.90
20973;DHT22;10645;52.370;13.314;2023-08-08T05:13:19;13.10;99.90
20973;DHT22;10645;52.370;13.314;2023-08-08T05:15:45;13.30;99.90
20973;DHT22;10645;52.370;13.314;2023-08-08T05:18:12;13.30;99.90
20973;DHT22;10645;52.370;13.314;2023-08-08T05:20:38;13.40;99.90
20973;DHT22;10645;52.370;13.314;2023-08-08T05:23:04;13.40;99.90
20973;DHT22;10645;52.370;13.314;2023-08-08T05:25:30;13.50;99.90
20973;DHT22;10645;52.370;13.314;2023-08-08T05:27:56;13.50;99.90
20973;DHT22;10645;52.370;13.314;2023-08-08T05:30:22;13.60;99.90
20973;DHT22;10645;52.370;13.314;2023-08-08T05:32:48;13.60;99.90
20973;DHT22;10645;52.370;13.314;2023-08-08T05:35:14;13.60;99.90
20973;DHT22;10645;52.370;13.314;2023-08-08T05:37:40;13.70;99.90
20973;DHT22;10645;52.370;13.314;2023-08-08T05:40:07;13.80;99.90
20973;DHT22;10645;52.370;13.314;2023-08-08T05:42:33;13.90;99.90
20973;DHT22;10645;52.370;13.314;2023-08-08T05:44:59;14.00;99.90
20973;DHT22;10645;52.370;13.314;2023-08-08T05:47:25;14.00;99.90
20973;DHT22;10645;52.370;13.314;2023-08-08T05:49:51;14.00;99.90
20973;DHT22;10645;52.370;13.314;2023-08-08T05:52:17;14.10;99.90
20973;DHT22;10645;52.370;13.314;2023-08-08T05:54:43;14.10;99.90
20973;DHT22;10645;52.370;13.314;2023-08-08T05:57:10;14.20;99.90
20973;DHT22;10645;52.370;13.314;2023-08-08T05:59:36;14.30;99.90
20973;DHT22;10645;52.370;13.314;2023-08-08T06:02:02;14.40;99.90
20973;DHT22;10645;52.370;13.314;2023-08-08T06:04:28;14.50;99.90
20973;DHT22;10645;52.370;13.314;2023-08-08T06:06:54;14.50;99.90
20973;DHT22;10645;52.370;13.314;2023-08-08T06:09:20;14.50;99.90
20973;DHT22;10645;52.370;13.314;2023-08-08T06:11:46;14.60;99.90
20973;DHT22;10645;52.370;13.314;2023-08-08T06:14:12;14.60;99.90
20973;DHT22;10645;52.370;13.314;2023-08-08T06:16:38;14.60;99.90
20973;DHT22;10645;52.370;13.314;2023-08-08T06:19:04;14.60;99.90
20973;DHT22;10645;52.370;13.314;2023-08-08T06:21:31;14.60;99.90
20973;DHT22;10645;52.370;13.314;2023-08-08T06:23:57;14.70;99.90
20973;DHT22;10645;52.370;13.314;2023-08-08T06:26:23;14.80;99.90
20973;DHT22;10645;52.370;13.314;2023-08-08T06:28:49;14.80;99.90
20973;DHT22;10645;52.370;13.314;2023-08-08T06:31:18;14.80;99.90
20973;DHT22;10645;52.370;13.314;2023-08-08T06:33:44;14.80;99.90
20973;DHT22;10645;52.370;13.314;2023-08-08T06:36:10;14.80;99.90
20973;DHT22;10645;52.370;13.314;2023-08-08T06:38:36;14.90;99.90
20973;DHT22;10645;52.370;13.314;2023-08-08T06:41:03;14.90;99.90
20973;DHT22;10645;52.370;13.314;2023-08-08T06:43:30;14.90;99.90
20973;DHT22;10645;52.370;13.314;2023-08-08T06:45:56;15.00;99.90
20973;DHT22;10645;52.370;13.314;2023-08-08T06:48:22;14.90;99.90
20973;DHT22;10645;52.370;13.314;2023-08-08T06:50:49;14.90;99.90
20973;DHT22;10645;52.370;13.314;2023-08-08T06:53:15;14.90;99.90
20973;DHT22;10645;52.370;13.314;2023-08-08T06:55:41;15.00;99.90
20973;DHT22;10645;52.370;13.314;2023-08-08T06:58:07;15.10;99.90
20973;DHT22;10645;52.370;13.314;2023-08-08T07:00:33;15.10;99.90
20973;DHT22;10645;52.370;13.314;2023-08-08T07:02:59;15.10;99.90
20973;DHT22;10645;52.370;13.314;2023-08-08T07:05:25;15.20;99.90
20973;DHT22;10645;52.370;13.314;2023-08-08T07:07:52;15.20;99.90
20973;DHT22;10645;52.370;13.314;2023-08-08T07:10:19;15.30;99.90
20973;DHT22;10645;52.370;13.314;2023-08-08T07:12:45;15.50;99.90
20973;DHT22;10645;52.370;13.314;2023-08-08T07:15:12;15.80;99.90
20973;DHT22;10645;52.370;13.314;2023-08-08T07:17:38;16.10;99.90
20973;DHT22;10645;52.370;13.314;2023-08-08T07:20:05;16.30;99.90
20973;DHT22;10645;52.370;13.314;2023-08-08T07:22:32;16.40;99.90
20973;DHT22;10645;52.370;13.314;2023-08-08T07:24:59;16.30;99.90
20973;DHT22;10645;52.370;13.314;2023-08-08T07:27:26;16.30;99.90
20973;DHT22;10645;52.370;13.314;2023-08-08T07:29:52;16.20;99.90
20973;DHT22;10645;52.370;13.314;2023-08-08T07:32:19;16.20;99.90
20973;DHT22;10645;52.370;13.314;2023-08-08T07:34:45;16.20;99.90
20973;DHT22;10645;52.370;13.314;2023-08-08T07:37:11;16.30;99.90
20973;DHT22;10645;52.370;13.314;2023-08-08T07:39:37;16.30;99.90
20973;DHT22;10645;52.370;13.314;2023-08-08T07:42:03;16.40;99.90
20973;DHT22;10645;52.370;13.314;2023-08-08T07:44:29;16.40;99.90
20973;DHT22;10645;52.370;13.314;2023-08-08T07:46:57;16.40;99.90
20973;DHT22;10645;52.370;13.314;2023-08-08T07:49:23;16.40;99.90
20973;DHT22;10645;52.370;13.314;2023-08-08T07:51:49;16.40;99.90
20973;DHT22;10645;52.370;13.314;2023-08-08T07:54:15;16.50;99.90
20973;DHT22;10645;52.370;13.314;2023-08-08T07:56:41;16.50;99.90
20973;DHT22;10645;52.370;13.314;2023-08-08T07:59:08;16.60;99.90
20973;DHT22;10645;52.370;13.314;2023-08-08T08:01:35;16.90;99.90
20973;DHT22;10645;52.370;13.314;2023-08-08T08:04:01;17.10;99.90
20973;DHT22;10645;52.370;13.314;2023-08-08T08:06:28;17.20;99.90
20973;DHT22;10645;52.370;13.314;2023-08-08T08:08:54;17.30;99.90
20973;DHT22;10645;52.370;13.314;2023-08-08T08:11:20;17.30;99.90
20973;DHT22;10645;52.370;13.314;2023-08-08T08:13:46;17.40;99.90
20973;DHT22;10645;52.370;13.314;2023-08-08T08:16:12;17.40;99.90
20973;DHT22;10645;52.370;13.314;2023-08-08T08:18:38;17.40;99.90
20973;DHT22;10645;52.370;13.314;2023-08-08T08:21:05;17.40;99.90
20973;DHT22;10645;52.370;13.314;2023-08-08T08:23:31;17.40;99.90
20973;DHT22;10645;52.370;13.314;2023-08-08T08:25:58;17.40;99.90
20973;DHT22;10645;52.370;13.314;2023-08-08T08:28:25;17.40;99.90
20973;DHT22;10645;52.370;13.314;2023-08-08T08:30:51;17.40;99.90
20973;DHT22;10645;52.370;13.314;2023-08-08T08:33:17;17.50;99.90
20973;DHT22;10645;52.370;13.314;2023-08-08T08:35:44;17.90;99.90
20973;DHT22;10645;52.370;13.314;2023-08-08T08:38:11;18.40;99.90
20973;DHT22;10645;52.370;13.314;2023-08-08T08:40:41;18.70;99.90
20973;DHT22;10645;52.370;13.314;2023-08-08T08:43:07;18.70;99.90
20973;DHT22;10645;52.370;13.314;2023-08-08T08:45:37;18.70;99.90
20973;DHT22;10645;52.370;13.314;2023-08-08T08:48:08;18.70;99.90
20973;DHT22;10645;52.370;13.314;2023-08-08T08:50:36;18.50;99.90
20973;DHT22;10645;52.370;13.314;2023-08-08T08:53:03;18.10;99.90
20973;DHT22;10645;52.370;13.314;2023-08-08T08:55:30;18.10;99.90
20973;DHT22;10645;52.370;13.314;2023-08-08T08:57:56;17.90;99.90
20973;DHT22;10645;52.370;13.314;2023-08-08T09:00:23;17.80;99.90
20973;DHT22;10645;52.370;13.314;2023-08-08T09:02:50;17.70;99.90
20973;DHT22;10645;52.370;13.314;2023-08-08T09:05:18;17.80;99.90
20973;DHT22;10645;52.370;13.314;2023-08-08T09:07:48;17.70;99.90
20973;DHT22;10645;52.370;13.314;2023-08-08T09:10:16;17.60;99.90
20973;DHT22;10645;52.370;13.314;2023-08-08T09:12:42;17.70;99.90
20973;DHT22;10645;52.370;13.314;2023-08-08T09:15:09;17.80;99.90
20973;DHT22;10645;52.370;13.314;2023-08-08T09:17:36;18.10;99.90
20973;DHT22;10645;52.370;13.314;2023-08-08T09:20:06;18.40;99.90
20973;DHT22;10645;52.370;13.314;2023-08-08T09:22:33;18.60;99.90
20973;DHT22;10645;52.370;13.314;2023-08-08T09:24:59;18.60;99.90
20973;DHT22;10645;52.370;13.314;2023-08-08T09:27:25;18.50;99.90
20973;DHT22;10645;52.370;13.314;2023-08-08T09:29:54;18.70;99.90
20973;DHT22;10645;52.370;13.314;2023-08-08T09:32:20;19.00;99.90
20973;DHT22;10645;52.370;13.314;2023-08-08T09:34:46;19.00;99.90
20973;DHT22;10645;52.370;13.314;2023-08-08T09:37:12;18.90;99.90
20973;DHT22;10645;52.370;13.314;2023-08-08T09:39:40;18.90;99.90
20973;DHT22;10645;52.370;13.314;2023-08-08T09:42:08;18.70;99.90
20973;DHT22;10645;52.370;13.314;2023-08-08T09:44:37;18.90;99.90
20973;DHT22;10645;52.370;13.314;2023-08-08T09:47:03;19.40;99.90
20973;DHT22;10645;52.370;13.314;2023-08-08T09:49:29;19.70;99.90
20973;DHT22;10645;52.370;13.314;2023-08-08T09:51:58;20.00;99.90
20973;DHT22;10645;52.370;13.314;2023-08-08T09:54:24;19.90;99.90
20973;DHT22;10645;52.370;13.314;2023-08-08T09:56:51;19.70;99.90
20973;DHT22;10645;52.370;13.314;2023-08-08T09:59:18;19.40;99.90
20973;DHT22;10645;52.370;13.314;2023-08-08T10:01:44;19.10;99.90
20973;DHT22;10645;52.370;13.314;2023-08-08T10:04:12;18.60;99.90
20973;DHT22;10645;52.370;13.314;2023-08-08T10:06:38;18.40;99.90
20973;DHT22;10645;52.370;13.314;2023-08-08T10:09:04;18.20;99.90
20973;DHT22;10645;52.370;13.314;2023-08-08T10:11:31;18.30;99.90
20973;DHT22;10645;52.370;13.314;2023-08-08T10:14:01;18.40;99.90
20973;DHT22;10645;52.370;13.314;2023-08-08T10:16:28;18.70;99.90
20973;DHT22;10645;52.370;13.314;2023-08-08T10:19:02;19.00;99.90
20973;DHT22;10645;52.370;13.314;2023-08-08T10:21:33;19.40;99.90
20973;DHT22;10645;52.370;13.314;2023-08-08T10:24:04;19.40;99.90
20973;DHT22;10645;52.370;13.314;2023-08-08T10:26:31;19.60;99.90
20973;DHT22;10645;52.370;13.314;2023-08-08T10:28:59;19.40;99.90
20973;DHT22;10645;52.370;13.314;2023-08-08T10:31:26;19.00;99.90
20973;DHT22;10645;52.370;13.314;2023-08-08T10:34:03;18.30;99.90
20973;DHT22;10645;52.370;13.314;2023-08-08T10:36:52;17.90;99.90
20973;DHT22;10645;52.370;13.314;2023-08-08T10:39:19;17.40;99.90
20973;DHT22;10645;52.370;13.314;2023-08-08T10:41:49;17.20;99.90
20973;DHT22;10645;52.370;13.314;2023-08-08T10:44:25;16.90;99.90
20973;DHT22;10645;52.370;13.314;2023-08-08T10:46:52;16.90;99.90
20973;DHT22;10645;52.370;13.314;2023-08-08T10:49:19;16.80;99.90
20973;DHT22;10645;52.370;13.314;2023-08-08T10:51:47;16.70;99.90
20973;DHT22;10645;52.370;13.314;2023-08-08T10:54:19;16.60;99.90
20973;DHT22;10645;52.370;13.314;2023-08-08T10:56:53;16.50;99.90
20973;DHT22;10645;52.370;13.314;2023-08-08T10:59:22;16.60;99.90
20973;DHT22;10645;52.370;13.314;2023-08-08T11:01:50;16.70;99.90
20973;DHT22;10645;52.370;13.314;2023-08-08T11:04:22;17.00;99.90
20973;DHT22;10645;52.370;13.314;2023-08-08T11:06:49;17.10;99.90
20973;DHT22;10645;52.370;13.314;2023-08-08T11:09:16;17.10;99.90
20973;DHT22;10645;52.370;13.314;2023-08-08T11:11:44;17.00;99.90
20973;DHT22;10645;52.370;13.314;2023-08-08T11:14:17;16.90;99.90
20973;DHT22;10645;52.370;13.314;2023-08-08T11:16:45;17.00;99.90
20973;DHT22;10645;52.370;13.314;2023-08-08T11:19:12;17.20;99.90
20973;DHT22;10645;52.370;13.314;2023-08-08T11:21:40;17.50;99.90
20973;DHT22;10645;52.370;13.314;2023-08-08T11:24:07;17.80;99.90
20973;DHT22;10645;52.370;13.314;2023-08-08T11:26:35;17.90;99.90
20973;DHT22;10645;52.370;13.314;2023-08-08T11:29:02;17.80;99.90
20973;DHT22;10645;52.370;13.314;2023-08-08T11:31:29;17.30;99.90
20973;DHT22;10645;52.370;13.314;2023-08-08T11:33:57;16.60;99.90
20973;DHT22;10645;52.370;13.314;2023-08-08T11:36:29;16.00;99.90
20973;DHT22;10645;52.370;13.314;2023-08-08T11:38:56;15.40;99.90
20973;DHT22;10645;52.370;13.314;2023-08-08T11:41:23;15.30;99.90
20973;DHT22;10645;52.370;13.314;2023-08-08T11:43:50;15.50;99.90
20973;DHT22;10645;52.370;13.314;2023-08-08T11:46:17;15.70;99.90
20973;DHT22;10645;52.370;13.314;2023-08-08T11:48:46;16.00;99.90
20973;DHT22;10645;52.370;13.314;2023-08-08T11:51:14;16.40;99.90
20973;DHT22;10645;52.370;13.314;2023-08-08T11:53:53;16.90;99.90
20973;DHT22;10645;52.370;13.314;2023-08-08T11:56:20;17.30;99.90
20973;DHT22;10645;52.370;13.314;2023-08-08T11:58:49;17.50;99.90
20973;DHT22;10645;52.370;13.314;2023-08-08T12:01:19;17.90;99.90
20973;DHT22;10645;52.370;13.314;2023-08-08T12:03:46;18.10;99.90
20973;DHT22;10645;52.370;13.314;2023-08-08T12:06:15;18.40;99.90
20973;DHT22;10645;52.370;13.314;2023-08-08T12:08:43;18.90;99.90
20973;DHT22;10645;52.370;13.314;2023-08-08T12:11:10;19.10;99.90
20973;DHT22;10645;52.370;13.314;2023-08-08T12:13:37;19.40;99.90
20973;DHT22;10645;52.370;13.314;2023-08-08T12:16:09;19.60;99.90
20973;DHT22;10645;52.370;13.314;2023-08-08T12:18:36;19.90;99.90
20973;DHT22;10645;52.370;13.314;2023-08-08T12:21:06;20.00;99.90
20973;DHT22;10645;52.370;13.314;2023-08-08T12:23:34;19.70;99.90
20973;DHT22;10645;52.370;13.314;2023-08-08T12:26:02;19.40;99.90
20973;DHT22;10645;52.370;13.314;2023-08-08T12:28:29;19.10;99.90
20973;DHT22;10645;52.370;13.314;2023-08-08T12:30:55;18.70;99.90
20973;DHT22;10645;52.370;13.314;2023-08-08T12:33:21;18.30;99.90
20973;DHT22;10645;52.370;13.314;2023-08-08T12:35:48;18.50;99.90
20973;DHT22;10645;52.370;13.314;2023-08-08T12:38:15;18.90;99.90
20973;DHT22;10645;52.370;13.314;2023-08-08T12:40:41;19.30;99.90
20973;DHT22;10645;52.370;13.314;2023-08-08T12:43:09;19.40;99.90
20973;DHT22;10645;52.370;13.314;2023-08-08T12:45:35;19.60;99.90
20973;DHT22;10645;52.370;13.314;2023-08-08T12:48:01;19.90;99.90
20973;DHT22;10645;52.370;13.314;2023-08-08T12:50:27;20.10;99.90
20973;DHT22;10645;52.370;13.314;2023-08-08T12:52:54;20.00;99.90
20973;DHT22;10645;52.370;13.314;2023-08-08T12:55:20;20.30;99.90
20973;DHT22;10645;52.370;13.314;2023-08-08T12:57:46;20.10;99.90
20973;DHT22;10645;52.370;13.314;2023-08-08T13:00:13;19.60;99.90
20973;DHT22;10645;52.370;13.314;2023-08-08T13:02:39;19.40;99.90
20973;DHT22;10645;52.370;13.314;2023-08-08T13:05:05;19.80;99.90
20973;DHT22;10645;52.370;13.314;2023-08-08T13:07:33;20.00;99.90
20973;DHT22;10645;52.370;13.314;2023-08-08T13:09:59;20.20;99.90
20973;DHT22;10645;52.370;13.314;2023-08-08T13:12:25;20.50;99.90
20973;DHT22;10645;52.370;13.314;2023-08-08T13:14:51;20.70;99.90
20973;DHT22;10645;52.370;13.314;2023-08-08T13:17:17;20.70;99.90
20973;DHT22;10645;52.370;13.314;2023-08-08T13:19:43;20.60;99.90
20973;DHT22;10645;52.370;13.314;2023-08-08T13:22:09;20.70;99.90
20973;DHT22;10645;52.370;13.314;2023-08-08T13:24:36;20.80;99.90
20973;DHT22;10645;52.370;13.314;2023-08-08T13:27:02;20.90;99.90
20973;DHT22;10645;52.370;13.314;2023-08-08T13:29:28;21.50;99.90
20973;DHT22;10645;52.370;13.314;2023-08-08T13:31:54;21.70;99.90
20973;DHT22;10645;52.370;13.314;2023-08-08T13:34:20;21.70;99.90
20973;DHT22;10645;52.370;13.314;2023-08-08T13:36:46;21.30;99.90
20973;DHT22;10645;52.370;13.314;2023-08-08T13:39:12;21.00;99.90
20973;DHT22;10645;52.370;13.314;2023-08-08T13:41:39;20.60;99.90
20973;DHT22;10645;52.370;13.314;2023-08-08T13:44:05;20.00;99.90
20973;DHT22;10645;52.370;13.314;2023-08-08T13:46:31;19.60;99.90
20973;DHT22;10645;52.370;13.314;2023-08-08T13:48:57;19.00;99.90
20973;DHT22;10645;52.370;13.314;2023-08-08T13:51:23;18.90;99.90
20973;DHT22;10645;52.370;13.314;2023-08-08T13:53:49;18.50;99.90
20973;DHT22;10645;52.370;13.314;2023-08-08T13:56:17;18.40;99.90
20973;DHT22;10645;52.370;13.314;2023-08-08T13:58:43;18.30;99.90
20973;DHT22;10645;52.370;13.314;2023-08-08T14:01:09;18.10;99.90
20973;DHT22;10645;52.370;13.314;2023-08-08T14:03:35;18.00;99.90
20973;DHT22;10645;52.370;13.314;2023-08-08T14:06:01;17.90;99.90
20973;DHT22;10645;52.370;13.314;2023-08-08T14:08:28;17.90;99.90
20973;DHT22;10645;52.370;13.314;2023-08-08T14:10:54;18.10;99.90
20973;DHT22;10645;52.370;13.314;2023-08-08T14:13:20;18.20;99.90
20973;DHT22;10645;52.370;13.314;2023-08-08T14:15:48;18.30;99.90
20973;DHT22;10645;52.370;13.314;2023-08-08T14:18:14;18.90;99.90
20973;DHT22;10645;52.370;13.314;2023-08-08T14:20:40;19.60;99.90
20973;DHT22;10645;52.370;13.314;2023-08-08T14:23:06;20.10;99.90
20973;DHT22;10645;52.370;13.314;2023-08-08T14:25:32;20.30;99.90
20973;DHT22;10645;52.370;13.314;2023-08-08T14:27:58;20.40;99.90
20973;DHT22;10645;52.370;13.314;2023-08-08T14:30:26;20.70;99.90
20973;DHT22;10645;52.370;13.314;2023-08-08T14:32:53;20.70;99.90
20973;DHT22;10645;52.370;13.314;2023-08-08T14:35:20;20.90;99.90
20973;DHT22;10645;52.370;13.314;2023-08-08T14:37:46;21.30;99.90
20973;DHT22;10645;52.370;13.314;2023-08-08T14:40:12;21.60;99.90
20973;DHT22;10645;52.370;13.314;2023-08-08T14:42:38;21.70;99.90
20973;DHT22;10645;52.370;13.314;2023-08-08T14:45:05;21.70;99.90
20973;DHT22;10645;52.370;13.314;2023-08-08T14:47:31;21.80;99.90
20973;DHT22;10645;52.370;13.314;2023-08-08T14:49:57;21.70;99.90
20973;DHT22;10645;52.370;13.314;2023-08-08T14:52:23;22.10;99.90
20973;DHT22;10645;52.370;13.314;2023-08-08T14:54:51;21.80;99.90
20973;DHT22;10645;52.370;13.314;2023-08-08T14:57:17;21.70;99.90
20973;DHT22;10645;52.370;13.314;2023-08-08T14:59:43;21.40;99.90
20973;DHT22;10645;52.370;13.314;2023-08-08T15:02:09;21.20;99.90
20973;DHT22;10645;52.370;13.314;2023-08-08T15:04:35;21.30;99.90
20973;DHT22;10645;52.370;13.314;2023-08-08T15:07:01;21.50;99.90
20973;DHT22;10645;52.370;13.314;2023-08-08T15:09:28;21.40;99.90
20973;DHT22;10645;52.370;13.314;2023-08-08T15:11:54;20.90;99.90
20973;DHT22;10645;52.370;13.314;2023-08-08T15:14:20;20.70;99.90